createdAt,value
2017-09-10T00:00:22.702Z,933.05
2017-09-10T00:00:50.673Z,933.07
2017-09-10T00:01:18.803Z,933.09
2017-09-10T00:01:46.776Z,933.08
2017-09-10T00:02:14.633Z,933.09
2017-09-10T00:02:42.706Z,933.12
2017-09-10T00:03:10.868Z,933.11
2017-09-10T00:03:38.873Z,933.14
2017-09-10T00:04:07.011Z,933.14
2017-09-10T00:04:35.177Z,933.18
2017-09-10T00:05:03.097Z,933.21
2017-09-10T00:05:31.271Z,933.2
2017-09-10T00:05:59.409Z,933.2
2017-09-10T00:06:27.575Z,933.19
2017-09-10T00:06:55.714Z,933.19
2017-09-10T00:07:23.917Z,933.17
2017-09-10T00:07:52.055Z,933.15
2017-09-10T00:08:20.318Z,933.15
2017-09-10T00:08:48.383Z,933.15
2017-09-10T00:09:16.250Z,933.18
2017-09-10T00:09:44.255Z,933.18
2017-09-10T00:10:12.352Z,933.21
2017-09-10T00:10:40.400Z,933.23
2017-09-10T00:11:08.472Z,933.22
2017-09-10T00:11:36.573Z,933.19
2017-09-10T00:12:04.711Z,933.22
2017-09-10T00:12:32.849Z,933.2
2017-09-10T00:13:00.837Z,933.23
2017-09-10T00:13:29.119Z,933.18
2017-09-10T00:13:57.196Z,933.19
2017-09-10T00:14:25.326Z,933.22
2017-09-10T00:14:53.325Z,933.21
2017-09-10T00:15:21.455Z,933.21
2017-09-10T00:15:49.493Z,933.18
2017-09-10T00:16:17.432Z,933.19
2017-09-10T00:16:45.572Z,933.16
2017-09-10T00:17:13.745Z,933.14
2017-09-10T00:17:41.836Z,933.14
2017-09-10T00:18:10.050Z,933.15
2017-09-10T00:18:37.912Z,933.15
2017-09-10T00:19:05.810Z,933.15
2017-09-10T00:19:33.695Z,933.12
2017-09-10T00:20:01.711Z,933.14
2017-09-10T00:20:29.933Z,933.13
2017-09-10T00:20:57.992Z,933.12
2017-09-10T00:21:26.148Z,933.12
2017-09-10T00:21:54.336Z,933.15
2017-09-10T00:22:22.375Z,933.15
2017-09-10T00:22:50.502Z,933.14
2017-09-10T00:23:18.705Z,933.13
2017-09-10T00:23:46.744Z,933.12
2017-09-10T00:24:14.883Z,933.13
2017-09-10T00:24:42.726Z,933.15
2017-09-10T00:25:10.778Z,933.16
2017-09-10T00:25:38.805Z,933.15
2017-09-10T00:26:06.733Z,933.13
2017-09-10T00:26:34.660Z,933.14
2017-09-10T00:27:02.699Z,933.13
2017-09-10T00:27:30.653Z,933.12
2017-09-10T00:27:58.702Z,933.14
2017-09-10T00:28:26.856Z,933.1
2017-09-10T00:28:54.900Z,933.13
2017-09-10T00:29:23.037Z,933.12
2017-09-10T00:29:51.189Z,933.11
2017-09-10T00:30:19.099Z,933.11
2017-09-10T00:30:47.132Z,933.08
2017-09-10T00:31:15.278Z,933.08
2017-09-10T00:31:43.489Z,933.05
2017-09-10T00:32:11.549Z,933.07
2017-09-10T00:32:39.710Z,933.07
2017-09-10T00:33:07.820Z,933.1
2017-09-10T00:33:35.959Z,933.07
2017-09-10T00:34:04.121Z,933.05
2017-09-10T00:34:32.273Z,933.05
2017-09-10T00:35:00.364Z,933.04
2017-09-10T00:35:28.260Z,933.05
2017-09-10T00:35:56.115Z,933
2017-09-10T00:36:24.273Z,933.07
2017-09-10T00:36:52.419Z,933.03
2017-09-10T00:37:20.330Z,933.05
2017-09-10T00:37:48.385Z,933.02
2017-09-10T00:38:16.497Z,933.03
2017-09-10T00:38:44.761Z,933.02
2017-09-10T00:39:12.985Z,933.04
2017-09-10T00:39:41.070Z,933.04
2017-09-10T00:40:09.160Z,933.03
2017-09-10T00:40:37.211Z,933.06
2017-09-10T00:41:05.252Z,933.06
2017-09-10T00:41:33.357Z,933.04
2017-09-10T00:42:01.294Z,933.04
2017-09-10T00:42:29.472Z,933.04
2017-09-10T00:42:57.636Z,933.03
2017-09-10T00:43:25.770Z,933.02
2017-09-10T00:43:53.954Z,933.06
2017-09-10T00:44:22.092Z,933.06
2017-09-10T00:44:50.157Z,933.05
2017-09-10T00:45:18.293Z,933.06
2017-09-10T00:45:46.372Z,933.03
2017-09-10T00:46:14.425Z,933.05
2017-09-10T00:46:42.495Z,933.06
2017-09-10T00:47:10.620Z,933.07
2017-09-10T00:47:38.763Z,933.03
2017-09-10T00:48:06.901Z,933.08
2017-09-10T00:48:34.930Z,933.07
2017-09-10T00:49:02.857Z,933.06
2017-09-10T00:49:31.005Z,933.05
2017-09-10T00:49:59.079Z,933.07
2017-09-10T00:50:26.891Z,933.08
2017-09-10T00:50:55.025Z,933.08
2017-09-10T00:51:23.187Z,933.06
2017-09-10T00:51:51.150Z,933.09
2017-09-10T00:52:19.324Z,933.08
2017-09-10T00:52:47.531Z,933.05
2017-09-10T00:53:15.694Z,933.06
2017-09-10T00:53:43.902Z,933.06
2017-09-10T00:54:11.949Z,933.06
2017-09-10T00:54:40.074Z,933.05
2017-09-10T00:55:08.027Z,933.08
2017-09-10T00:55:36.075Z,933.08
2017-09-10T00:56:04.232Z,933.08
2017-09-10T00:56:32.192Z,933.07
2017-09-10T00:57:00.252Z,933.11
2017-09-10T00:57:28.278Z,933.08
2017-09-10T00:57:56.425Z,933.09
2017-09-10T00:58:24.572Z,933.13
2017-09-10T00:58:52.752Z,933.11
2017-09-10T00:59:20.877Z,933.13
2017-09-10T00:59:48.945Z,933.14
2017-09-10T01:00:16.982Z,933.13
2017-09-10T01:00:45.068Z,933.14
2017-09-10T01:01:13.216Z,933.13
2017-09-10T01:01:41.295Z,933.13
2017-09-10T01:02:09.341Z,933.15
2017-09-10T01:02:37.470Z,933.15
2017-09-10T01:03:05.483Z,933.17
2017-09-10T01:03:33.612Z,933.19
2017-09-10T01:04:01.797Z,933.16
2017-09-10T01:04:29.957Z,933.17
2017-09-10T01:04:58.043Z,933.2
2017-09-10T01:05:25.999Z,933.18
2017-09-10T01:05:54.156Z,933.2
2017-09-10T01:06:22.304Z,933.19
2017-09-10T01:06:50.393Z,933.21
2017-09-10T01:07:18.242Z,933.19
2017-09-10T01:07:46.294Z,933.2
2017-09-10T01:08:14.296Z,933.17
2017-09-10T01:08:42.315Z,933.16
2017-09-10T01:09:10.444Z,933.16
2017-09-10T01:09:38.531Z,933.13
2017-09-10T01:10:06.501Z,933.15
2017-09-10T01:10:34.441Z,933.11
2017-09-10T01:11:02.311Z,933.08
2017-09-10T01:11:30.472Z,933.1
2017-09-10T01:11:58.620Z,933.09
2017-09-10T01:12:26.716Z,933.07
2017-09-10T01:12:54.891Z,933.06
2017-09-10T01:13:22.962Z,933.06
2017-09-10T01:13:51.096Z,933.06
2017-09-10T01:14:19.182Z,933.07
2017-09-10T01:14:47.233Z,933.05
2017-09-10T01:15:15.292Z,933.1
2017-09-10T01:15:43.379Z,933.08
2017-09-10T01:16:11.509Z,933.07
2017-09-10T01:16:39.666Z,933.07
2017-09-10T01:17:07.810Z,933.1
2017-09-10T01:17:35.897Z,933.08
2017-09-10T01:18:03.980Z,933.06
2017-09-10T01:18:32.006Z,933.07
2017-09-10T01:19:00.220Z,933.06
2017-09-10T01:19:28.340Z,933.07
2017-09-10T01:19:56.475Z,933.07
2017-09-10T01:20:24.546Z,933.05
2017-09-10T01:20:52.627Z,933.01
2017-09-10T01:21:20.661Z,932.98
2017-09-10T01:21:48.701Z,932.99
2017-09-10T01:22:16.750Z,932.98
2017-09-10T01:22:44.859Z,932.97
2017-09-10T01:23:12.800Z,932.99
2017-09-10T01:23:40.781Z,932.97
2017-09-10T01:24:09.048Z,932.95
2017-09-10T01:24:37.183Z,932.95
2017-09-10T01:25:05.391Z,932.91
2017-09-10T01:25:33.534Z,932.94
2017-09-10T01:26:01.496Z,932.92
2017-09-10T01:26:29.556Z,932.9
2017-09-10T01:26:57.746Z,932.89
2017-09-10T01:27:25.913Z,932.86
2017-09-10T01:27:53.946Z,932.91
2017-09-10T01:28:21.946Z,932.9
2017-09-10T01:28:49.873Z,932.91
2017-09-10T01:29:18.026Z,932.95
2017-09-10T01:29:46.187Z,932.92
2017-09-10T01:30:14.241Z,932.91
2017-09-10T01:30:42.075Z,932.93
2017-09-10T01:31:10.206Z,932.92
2017-09-10T01:31:38.045Z,932.92
2017-09-10T01:32:06.260Z,932.96
2017-09-10T01:32:34.333Z,932.97
2017-09-10T01:33:02.480Z,932.97
2017-09-10T01:33:30.505Z,932.99
2017-09-10T01:33:58.607Z,933.02
2017-09-10T01:34:26.578Z,933.01
2017-09-10T01:34:54.739Z,933.01
2017-09-10T01:35:22.745Z,932.99
2017-09-10T01:35:50.660Z,932.98
2017-09-10T01:36:18.733Z,933.01
2017-09-10T01:36:46.846Z,932.99
2017-09-10T01:37:14.782Z,933
2017-09-10T01:37:42.819Z,933
2017-09-10T01:38:10.984Z,932.97
2017-09-10T01:38:38.901Z,932.97
2017-09-10T01:39:07.063Z,933
2017-09-10T01:39:35.117Z,933.01
2017-09-10T01:40:03.283Z,933.02
2017-09-10T01:40:31.422Z,932.99
2017-09-10T01:40:59.336Z,932.99
2017-09-10T01:41:27.501Z,933.02
2017-09-10T01:41:55.428Z,933.04
2017-09-10T01:42:23.579Z,933.01
2017-09-10T01:42:51.751Z,933.02
2017-09-10T01:43:19.929Z,933.04
2017-09-10T01:43:47.963Z,933.03
2017-09-10T01:44:16.115Z,933.04
2017-09-10T01:44:44.162Z,933.08
2017-09-10T01:45:12.326Z,933.06
2017-09-10T01:45:40.411Z,933.07
2017-09-10T01:46:08.356Z,933.11
2017-09-10T01:46:36.568Z,933.1
2017-09-10T01:47:04.601Z,933.08
2017-09-10T01:47:32.755Z,933.09
2017-09-10T01:48:00.881Z,933.14
2017-09-10T01:48:29.046Z,933.1
2017-09-10T01:48:57.180Z,933.11
2017-09-10T01:49:25.372Z,933.11
2017-09-10T01:49:53.532Z,933.14
2017-09-10T01:50:21.545Z,933.12
2017-09-10T01:50:49.566Z,933.11
2017-09-10T01:51:17.372Z,933.15
2017-09-10T01:51:45.425Z,933.14
2017-09-10T01:52:13.588Z,933.12
2017-09-10T01:52:41.639Z,933.12
2017-09-10T01:53:09.701Z,933.13
2017-09-10T01:53:37.855Z,933.14
2017-09-10T01:54:05.888Z,933.11
2017-09-10T01:54:34.125Z,933.11
2017-09-10T01:55:02.282Z,933.12
2017-09-10T01:55:30.394Z,933.14
2017-09-10T01:55:58.522Z,933.16
2017-09-10T01:56:26.663Z,933.15
2017-09-10T01:56:54.679Z,933.14
2017-09-10T01:57:22.734Z,933.13
2017-09-10T01:57:50.882Z,933.11
2017-09-10T01:58:18.934Z,933.11
2017-09-10T01:58:47.067Z,933.12
2017-09-10T01:59:15.218Z,933.12
2017-09-10T01:59:43.341Z,933.12
2017-09-10T02:00:11.486Z,933.1
2017-09-10T02:00:39.629Z,933.11
2017-09-10T02:01:07.584Z,933.1
2017-09-10T02:01:35.780Z,933.09
2017-09-10T02:02:03.839Z,933.08
2017-09-10T02:02:32.100Z,933.05
2017-09-10T02:03:00.272Z,933.1
2017-09-10T02:03:28.392Z,933.09
2017-09-10T02:03:56.460Z,933.09
2017-09-10T02:04:24.714Z,933.08
2017-09-10T02:04:52.850Z,933.07
2017-09-10T02:05:21.018Z,933.12
2017-09-10T02:05:49.190Z,933.08
2017-09-10T02:06:17.259Z,933.1
2017-09-10T02:06:45.400Z,933.06
2017-09-10T02:07:13.538Z,933.08
2017-09-10T02:07:41.692Z,933.08
2017-09-10T02:08:09.698Z,933.07
2017-09-10T02:08:37.600Z,933.09
2017-09-10T02:09:05.747Z,933.03
2017-09-10T02:09:34.031Z,933.07
2017-09-10T02:10:02.088Z,933.06
2017-09-10T02:10:30.130Z,933.04
2017-09-10T02:10:58.042Z,933.07
2017-09-10T02:11:26.209Z,933.01
2017-09-10T02:11:54.253Z,933.05
2017-09-10T02:12:22.325Z,933.05
2017-09-10T02:12:50.189Z,933.04
2017-09-10T02:13:18.353Z,933.04
2017-09-10T02:13:46.478Z,933.03
2017-09-10T02:14:14.528Z,933.05
2017-09-10T02:14:42.567Z,933.04
2017-09-10T02:15:10.572Z,933.01
2017-09-10T02:15:38.749Z,933.03
2017-09-10T02:16:06.877Z,933.04
2017-09-10T02:16:34.932Z,933.04
2017-09-10T02:17:02.912Z,933.03
2017-09-10T02:17:31.066Z,933.02
2017-09-10T02:17:59.260Z,933
2017-09-10T02:18:27.280Z,933.04
2017-09-10T02:18:55.210Z,933.04
2017-09-10T02:19:23.281Z,933.04
2017-09-10T02:19:51.514Z,933.05
2017-09-10T02:20:19.668Z,933.01
2017-09-10T02:20:47.714Z,933.01
2017-09-10T02:21:15.836Z,933
2017-09-10T02:21:43.789Z,933
2017-09-10T02:22:11.725Z,933
2017-09-10T02:22:39.744Z,932.98
2017-09-10T02:23:07.904Z,932.98
2017-09-10T02:23:36.046Z,932.99
2017-09-10T02:24:04.107Z,932.98
2017-09-10T02:24:32.267Z,932.94
2017-09-10T02:25:00.363Z,932.98
2017-09-10T02:25:28.291Z,932.96
2017-09-10T02:25:56.349Z,933
2017-09-10T02:26:24.305Z,932.96
2017-09-10T02:26:52.334Z,932.99
2017-09-10T02:27:20.387Z,933.03
2017-09-10T02:27:48.530Z,932.98
2017-09-10T02:28:16.488Z,932.99
2017-09-10T02:28:44.649Z,932.98
2017-09-10T02:29:12.696Z,932.98
2017-09-10T02:29:40.978Z,932.99
2017-09-10T02:30:09.014Z,933.01
2017-09-10T02:30:37.196Z,932.98
2017-09-10T02:31:05.294Z,933.01
2017-09-10T02:31:33.326Z,932.96
2017-09-10T02:32:01.493Z,932.96
2017-09-10T02:32:29.621Z,932.96
2017-09-10T02:32:57.743Z,932.94
2017-09-10T02:33:25.737Z,932.96
2017-09-10T02:33:53.849Z,932.95
2017-09-10T02:34:21.899Z,932.95
2017-09-10T02:34:50.178Z,932.96
2017-09-10T02:35:18.239Z,932.99
2017-09-10T02:35:46.291Z,932.99
2017-09-10T02:36:14.438Z,933.01
2017-09-10T02:36:42.586Z,932.99
2017-09-10T02:37:10.757Z,932.97
2017-09-10T02:37:38.710Z,932.96
2017-09-10T02:38:06.737Z,932.96
2017-09-10T02:38:34.789Z,933
2017-09-10T02:39:02.938Z,932.99
2017-09-10T02:39:30.974Z,932.95
2017-09-10T02:39:59.127Z,933
2017-09-10T02:40:27.261Z,932.94
2017-09-10T02:40:55.404Z,932.96
2017-09-10T02:41:23.219Z,932.95
2017-09-10T02:41:51.230Z,932.93
2017-09-10T02:42:19.296Z,932.96
2017-09-10T02:42:47.225Z,932.97
2017-09-10T02:43:15.186Z,932.98
2017-09-10T02:43:43.235Z,932.96
2017-09-10T02:44:11.279Z,932.96
2017-09-10T02:44:39.302Z,932.96
2017-09-10T02:45:07.447Z,932.96
2017-09-10T02:45:35.484Z,932.97
2017-09-10T02:46:03.585Z,933
2017-09-10T02:46:31.657Z,932.98
2017-09-10T02:46:59.769Z,932.98
2017-09-10T02:47:27.922Z,932.99
2017-09-10T02:47:55.907Z,932.98
2017-09-10T02:48:23.787Z,932.95
2017-09-10T02:48:51.837Z,932.98
2017-09-10T02:49:19.999Z,932.98
2017-09-10T02:49:48.158Z,932.99
2017-09-10T02:50:16.218Z,932.97
2017-09-10T02:50:44.368Z,933
2017-09-10T02:51:12.535Z,933.03
2017-09-10T02:51:40.467Z,933.02
2017-09-10T02:52:08.493Z,932.96
2017-09-10T02:52:36.673Z,933.01
2017-09-10T02:53:04.781Z,932.99
2017-09-10T02:53:32.858Z,933.01
2017-09-10T02:54:01.020Z,933
2017-09-10T02:54:29.202Z,932.94
2017-09-10T02:54:57.419Z,932.98
2017-09-10T02:55:25.492Z,933.04
2017-09-10T02:55:53.628Z,932.96
2017-09-10T02:56:21.776Z,933.02
2017-09-10T02:56:49.739Z,933
2017-09-10T02:57:17.913Z,933.02
2017-09-10T02:57:46.057Z,933
2017-09-10T02:58:14.068Z,933.01
2017-09-10T02:58:42.193Z,933
2017-09-10T02:59:10.122Z,933
2017-09-10T02:59:38.259Z,933.02
2017-09-10T03:00:06.491Z,933
2017-09-10T03:00:34.641Z,932.98
2017-09-10T03:01:02.587Z,933
2017-09-10T03:01:30.733Z,933.01
2017-09-10T03:01:58.884Z,933
2017-09-10T03:02:26.759Z,933
2017-09-10T03:02:54.813Z,933.01
2017-09-10T03:03:22.849Z,933.02
2017-09-10T03:03:50.967Z,932.99
2017-09-10T03:04:19.107Z,933
2017-09-10T03:04:47.886Z,933
2017-09-10T03:05:16.099Z,932.99
2017-09-10T03:05:44.123Z,932.97
2017-09-10T03:06:12.065Z,933.02
2017-09-10T03:06:40.190Z,932.99
2017-09-10T03:07:08.279Z,933
2017-09-10T03:07:36.456Z,932.99
2017-09-10T03:08:04.509Z,932.96
2017-09-10T03:08:32.463Z,932.97
2017-09-10T03:09:00.498Z,932.98
2017-09-10T03:09:28.454Z,933.02
2017-09-10T03:09:56.457Z,933.01
2017-09-10T03:10:24.758Z,933.02
2017-09-10T03:10:52.806Z,933.01
2017-09-10T03:11:20.906Z,932.99
2017-09-10T03:11:48.937Z,933
2017-09-10T03:12:16.905Z,933.02
2017-09-10T03:12:44.841Z,933
2017-09-10T03:13:12.853Z,933.02
2017-09-10T03:13:40.825Z,933.03
2017-09-10T03:14:08.928Z,932.99
2017-09-10T03:14:37.020Z,932.99
2017-09-10T03:15:05.303Z,932.99
2017-09-10T03:15:33.392Z,933.01
2017-09-10T03:16:01.484Z,933.02
2017-09-10T03:16:29.630Z,933.01
2017-09-10T03:16:57.667Z,932.99
2017-09-10T03:17:25.707Z,932.99
2017-09-10T03:17:53.758Z,932.97
2017-09-10T03:18:21.829Z,932.98
2017-09-10T03:20:29.603Z,932.94
2017-09-10T03:20:57.663Z,932.92
2017-09-10T03:21:25.793Z,932.96
2017-09-10T03:21:53.882Z,932.94
2017-09-10T03:22:22.109Z,932.94
2017-09-10T03:22:50.245Z,932.93
2017-09-10T03:23:18.437Z,932.93
2017-09-10T03:23:46.663Z,932.96
2017-09-10T03:24:14.684Z,932.96
2017-09-10T03:24:42.813Z,932.94
2017-09-10T03:25:10.919Z,932.96
2017-09-10T03:25:39.132Z,932.93
2017-09-10T03:26:07.028Z,932.94
2017-09-10T03:26:35.082Z,932.93
2017-09-10T03:27:03.341Z,932.92
2017-09-10T03:27:31.601Z,932.96
2017-09-10T03:27:59.866Z,932.98
2017-09-10T03:28:28.068Z,932.98
2017-09-10T03:28:56.189Z,932.96
2017-09-10T03:29:24.316Z,932.96
2017-09-10T03:29:52.538Z,933
2017-09-10T03:30:20.691Z,933.03
2017-09-10T03:30:48.992Z,933.05
2017-09-10T03:31:17.211Z,932.98
2017-09-10T03:31:45.479Z,933.04
2017-09-10T03:32:13.605Z,933.01
2017-09-10T03:32:41.722Z,933.04
2017-09-10T03:33:09.871Z,933.06
2017-09-10T03:33:37.914Z,933.06
2017-09-10T03:34:06.071Z,933
2017-09-10T03:34:34.107Z,933.03
2017-09-10T03:35:02.064Z,933.05
2017-09-10T03:35:30.291Z,933.02
2017-09-10T03:35:58.523Z,933.08
2017-09-10T03:36:26.777Z,933.02
2017-09-10T03:36:54.934Z,933
2017-09-10T03:37:23.119Z,933.01
2017-09-10T03:37:51.365Z,933.01
2017-09-10T03:38:19.526Z,933.02
2017-09-10T03:38:47.750Z,933.02
2017-09-10T03:39:15.999Z,932.97
2017-09-10T03:39:44.123Z,932.98
2017-09-10T03:40:12.376Z,933.01
2017-09-10T03:40:40.689Z,932.99
2017-09-10T03:41:08.918Z,932.99
2017-09-10T03:41:37.072Z,933.01
2017-09-10T03:42:04.954Z,933.04
2017-09-10T03:42:33.136Z,933
2017-09-10T03:43:01.272Z,932.98
2017-09-10T03:43:29.438Z,932.99
2017-09-10T03:43:57.474Z,932.98
2017-09-10T03:44:25.675Z,932.97
2017-09-10T03:44:53.789Z,932.94
2017-09-10T03:45:22.008Z,933.01
2017-09-10T03:45:50.229Z,932.95
2017-09-10T03:46:18.353Z,932.95
2017-09-10T03:46:46.447Z,932.94
2017-09-10T03:47:14.681Z,932.96
2017-09-10T03:47:42.904Z,932.94
2017-09-10T03:48:11.141Z,932.89
2017-09-10T03:48:39.246Z,932.91
2017-09-10T03:49:07.288Z,932.89
2017-09-10T03:49:35.487Z,932.86
2017-09-10T03:50:03.605Z,932.88
2017-09-10T03:50:31.828Z,932.89
2017-09-10T03:51:00.171Z,932.87
2017-09-10T03:51:28.384Z,932.86
2017-09-10T03:51:56.528Z,932.85
2017-09-10T03:52:24.662Z,932.85
2017-09-10T03:52:52.793Z,932.85
2017-09-10T03:53:21.017Z,932.82
2017-09-10T03:53:49.174Z,932.84
2017-09-10T03:54:17.409Z,932.82
2017-09-10T03:54:45.576Z,932.83
2017-09-10T03:55:13.775Z,932.8
2017-09-10T03:55:41.926Z,932.82
2017-09-10T03:56:10.249Z,932.82
2017-09-10T03:56:38.520Z,932.81
2017-09-10T03:57:06.791Z,932.81
2017-09-10T03:57:34.916Z,932.77
2017-09-10T03:58:03.166Z,932.77
2017-09-10T03:58:31.280Z,932.76
2017-09-10T03:58:59.457Z,932.77
2017-09-10T03:59:27.607Z,932.74
2017-09-10T03:59:55.659Z,932.77
2017-09-10T04:00:23.908Z,932.75
2017-09-10T04:00:52.120Z,932.76
2017-09-10T04:01:20.151Z,932.76
2017-09-10T04:01:48.400Z,932.76
2017-09-10T04:02:16.437Z,932.77
2017-09-10T04:02:44.490Z,932.78
2017-09-10T04:03:12.765Z,932.77
2017-09-10T04:03:40.984Z,932.75
2017-09-10T04:04:09.122Z,932.76
2017-09-10T04:04:37.139Z,932.75
2017-09-10T04:05:05.409Z,932.76
2017-09-10T04:05:33.617Z,932.76
2017-09-10T04:06:01.850Z,932.75
2017-09-10T04:06:30.075Z,932.72
2017-09-10T04:06:58.007Z,932.74
2017-09-10T04:07:26.137Z,932.74
2017-09-10T04:07:54.318Z,932.75
2017-09-10T04:08:22.266Z,932.73
2017-09-10T04:08:50.256Z,932.74
2017-09-10T04:09:18.274Z,932.71
2017-09-10T04:09:46.196Z,932.7
2017-09-10T04:10:14.433Z,932.7
2017-09-10T04:10:42.569Z,932.67
2017-09-10T04:11:10.899Z,932.69
2017-09-10T04:11:39.066Z,932.67
2017-09-10T04:12:07.338Z,932.63
2017-09-10T04:12:35.359Z,932.65
2017-09-10T04:13:03.501Z,932.6
2017-09-10T04:13:31.654Z,932.6
2017-09-10T04:13:59.806Z,932.64
2017-09-10T04:14:27.952Z,932.62
2017-09-10T04:14:56.139Z,932.6
2017-09-10T04:15:24.306Z,932.6
2017-09-10T04:15:52.518Z,932.58
2017-09-10T04:16:20.852Z,932.59
2017-09-10T04:16:48.896Z,932.57
2017-09-10T04:17:17.138Z,932.59
2017-09-10T04:17:45.311Z,932.59
2017-09-10T04:18:13.458Z,932.58
2017-09-10T04:18:41.711Z,932.57
2017-09-10T04:19:09.983Z,932.59
2017-09-10T04:19:38.125Z,932.56
2017-09-10T04:20:06.171Z,932.56
2017-09-10T04:20:34.289Z,932.56
2017-09-10T04:21:02.481Z,932.59
2017-09-10T04:21:30.685Z,932.59
2017-09-10T04:21:58.923Z,932.62
2017-09-10T04:22:27.032Z,932.62
2017-09-10T04:22:55.264Z,932.6
2017-09-10T04:23:23.392Z,932.6
2017-09-10T04:23:51.591Z,932.63
2017-09-10T04:24:19.755Z,932.6
2017-09-10T04:24:48.011Z,932.61
2017-09-10T04:25:16.290Z,932.57
2017-09-10T04:25:44.436Z,932.59
2017-09-10T04:26:12.676Z,932.59
2017-09-10T04:26:40.910Z,932.6
2017-09-10T04:27:09.157Z,932.59
2017-09-10T04:27:37.409Z,932.6
2017-09-10T04:28:05.602Z,932.55
2017-09-10T04:28:33.857Z,932.59
2017-09-10T04:29:01.966Z,932.61
2017-09-10T04:29:29.982Z,932.59
2017-09-10T04:29:58.091Z,932.59
2017-09-10T04:30:26.320Z,932.59
2017-09-10T04:30:54.493Z,932.58
2017-09-10T04:31:22.812Z,932.6
2017-09-10T04:31:50.954Z,932.61
2017-09-10T04:32:19.161Z,932.58
2017-09-10T04:32:47.379Z,932.56
2017-09-10T04:33:15.614Z,932.54
2017-09-10T04:33:43.736Z,932.56
2017-09-10T04:34:11.642Z,932.56
2017-09-10T04:34:39.670Z,932.56
2017-09-10T04:35:07.917Z,932.56
2017-09-10T04:35:36.053Z,932.56
2017-09-10T04:36:04.219Z,932.56
2017-09-10T04:36:32.565Z,932.55
2017-09-10T04:37:00.829Z,932.56
2017-09-10T04:37:29.059Z,932.59
2017-09-10T04:37:57.176Z,932.53
2017-09-10T04:38:25.400Z,932.56
2017-09-10T04:38:53.444Z,932.54
2017-09-10T04:39:21.661Z,932.53
2017-09-10T04:39:49.771Z,932.56
2017-09-10T04:40:17.888Z,932.55
2017-09-10T04:40:46.079Z,932.57
2017-09-10T04:41:14.237Z,932.52
2017-09-10T04:41:42.600Z,932.51
2017-09-10T04:42:10.804Z,932.53
2017-09-10T04:42:38.968Z,932.51
2017-09-10T04:43:07.194Z,932.53
2017-09-10T04:43:35.237Z,932.49
2017-09-10T04:44:03.516Z,932.47
2017-09-10T04:44:31.743Z,932.49
2017-09-10T04:44:59.894Z,932.46
2017-09-10T04:45:28.148Z,932.49
2017-09-10T04:45:56.302Z,932.48
2017-09-10T04:46:24.507Z,932.47
2017-09-10T04:46:52.786Z,932.47
2017-09-10T04:47:20.837Z,932.44
2017-09-10T04:47:49.052Z,932.45
2017-09-10T04:48:17.172Z,932.42
2017-09-10T04:48:45.385Z,932.44
2017-09-10T04:49:13.536Z,932.44
2017-09-10T04:49:41.649Z,932.43
2017-09-10T04:50:09.794Z,932.45
2017-09-10T04:50:37.991Z,932.43
2017-09-10T04:51:06.103Z,932.43
2017-09-10T04:51:34.239Z,932.41
2017-09-10T04:52:02.552Z,932.43
2017-09-10T04:52:30.666Z,932.42
2017-09-10T04:52:58.810Z,932.42
2017-09-10T04:53:27.056Z,932.42
2017-09-10T04:53:55.300Z,932.45
2017-09-10T04:54:23.545Z,932.43
2017-09-10T04:54:51.700Z,932.43
2017-09-10T04:55:19.955Z,932.44
2017-09-10T04:55:48.203Z,932.45
2017-09-10T04:56:16.329Z,932.45
2017-09-10T04:56:44.484Z,932.44
2017-09-10T04:57:12.587Z,932.43
2017-09-10T04:57:40.672Z,932.39
2017-09-10T04:58:08.907Z,932.4
2017-09-10T04:58:37.151Z,932.39
2017-09-10T04:59:05.291Z,932.4
2017-09-10T04:59:33.339Z,932.37
2017-09-10T05:00:01.565Z,932.38
2017-09-10T05:00:29.795Z,932.4
2017-09-10T05:00:57.942Z,932.37
2017-09-10T05:01:26.070Z,932.4
2017-09-10T05:01:54.209Z,932.41
2017-09-10T05:02:22.468Z,932.38
2017-09-10T05:02:50.752Z,932.39
2017-09-10T05:03:18.891Z,932.39
2017-09-10T05:03:47.103Z,932.39
2017-09-10T05:04:15.326Z,932.35
2017-09-10T05:04:43.474Z,932.43
2017-09-10T05:05:11.674Z,932.39
2017-09-10T05:05:39.833Z,932.36
2017-09-10T05:06:08.073Z,932.37
2017-09-10T05:06:36.268Z,932.37
2017-09-10T05:07:04.606Z,932.36
2017-09-10T05:07:32.872Z,932.35
2017-09-10T05:08:01.075Z,932.34
2017-09-10T05:08:29.305Z,932.36
2017-09-10T05:08:57.506Z,932.36
2017-09-10T05:09:25.648Z,932.36
2017-09-10T05:09:53.885Z,932.3
2017-09-10T05:10:22.009Z,932.34
2017-09-10T05:10:50.148Z,932.28
2017-09-10T05:11:18.186Z,932.3
2017-09-10T05:11:46.416Z,932.3
2017-09-10T05:12:14.693Z,932.27
2017-09-10T05:12:42.825Z,932.28
2017-09-10T05:13:11.032Z,932.26
2017-09-10T05:13:39.256Z,932.27
2017-09-10T05:14:07.363Z,932.27
2017-09-10T05:14:35.417Z,932.26
2017-09-10T05:15:03.550Z,932.26
2017-09-10T05:15:31.675Z,932.31
2017-09-10T05:15:59.916Z,932.28
2017-09-10T05:16:28.165Z,932.29
2017-09-10T05:16:56.287Z,932.31
2017-09-10T05:17:24.344Z,932.29
2017-09-10T05:17:52.453Z,932.26
2017-09-10T05:18:20.679Z,932.26
2017-09-10T05:18:48.911Z,932.27
2017-09-10T05:19:17.180Z,932.29
2017-09-10T05:19:45.211Z,932.3
2017-09-10T05:20:13.453Z,932.25
2017-09-10T05:20:41.577Z,932.29
2017-09-10T05:21:09.703Z,932.25
2017-09-10T05:21:37.821Z,932.26
2017-09-10T05:22:06.078Z,932.27
2017-09-10T05:22:34.299Z,932.29
2017-09-10T05:23:02.505Z,932.28
2017-09-10T05:23:30.457Z,932.28
2017-09-10T05:23:58.690Z,932.3
2017-09-10T05:24:26.822Z,932.27
2017-09-10T05:24:55.040Z,932.26
2017-09-10T05:25:23.274Z,932.28
2017-09-10T05:25:51.397Z,932.28
2017-09-10T05:26:19.648Z,932.34
2017-09-10T05:26:47.894Z,932.26
2017-09-10T05:27:16.151Z,932.25
2017-09-10T05:27:44.364Z,932.27
2017-09-10T05:28:12.577Z,932.24
2017-09-10T05:28:40.632Z,932.26
2017-09-10T05:29:08.824Z,932.27
2017-09-10T05:29:36.966Z,932.23
2017-09-10T05:30:05.085Z,932.23
2017-09-10T05:30:33.218Z,932.25
2017-09-10T05:31:01.352Z,932.26
2017-09-10T05:31:29.640Z,932.27
2017-09-10T05:31:57.666Z,932.24
2017-09-10T05:32:25.676Z,932.23
2017-09-10T05:32:53.819Z,932.21
2017-09-10T05:33:21.854Z,932.24
2017-09-10T05:33:49.999Z,932.23
2017-09-10T05:34:18.069Z,932.21
2017-09-10T05:34:46.182Z,932.18
2017-09-10T05:35:14.442Z,932.22
2017-09-10T05:35:42.579Z,932.21
2017-09-10T05:36:10.608Z,932.17
2017-09-10T05:36:38.808Z,932.18
2017-09-10T05:37:07.041Z,932.18
2017-09-10T05:37:35.255Z,932.17
2017-09-10T05:38:03.358Z,932.14
2017-09-10T05:38:31.583Z,932.16
2017-09-10T05:38:59.759Z,932.19
2017-09-10T05:39:27.865Z,932.16
2017-09-10T05:39:56.075Z,932.17
2017-09-10T05:40:24.192Z,932.16
2017-09-10T05:40:52.220Z,932.12
2017-09-10T05:41:20.264Z,932.09
2017-09-10T05:41:48.510Z,932.11
2017-09-10T05:42:16.681Z,932.11
2017-09-10T05:42:44.911Z,932.07
2017-09-10T05:43:13.157Z,932.08
2017-09-10T05:43:41.389Z,932.09
2017-09-10T05:44:09.671Z,932.11
2017-09-10T05:44:37.864Z,932.09
2017-09-10T05:45:06.112Z,932.05
2017-09-10T05:45:34.244Z,932.1
2017-09-10T05:46:02.289Z,932.08
2017-09-10T05:46:30.553Z,932.07
2017-09-10T05:46:58.686Z,932.06
2017-09-10T05:47:26.943Z,932.08
2017-09-10T05:47:55.210Z,932.08
2017-09-10T05:48:23.410Z,932.05
2017-09-10T05:48:51.657Z,932.1
2017-09-10T05:49:19.769Z,932.09
2017-09-10T05:49:47.908Z,932.09
2017-09-10T05:50:15.933Z,932.08
2017-09-10T05:50:44.199Z,932.09
2017-09-10T05:51:12.384Z,932.12
2017-09-10T05:51:40.523Z,932.1
2017-09-10T05:52:08.434Z,932.12
2017-09-10T05:52:36.588Z,932.13
2017-09-10T05:53:04.827Z,932.09
2017-09-10T05:53:33.113Z,932.11
2017-09-10T05:54:01.362Z,932.11
2017-09-10T05:54:29.494Z,932.14